Aérodrome :
LOGIN :

S'inscrire | Disclaimer

   EN    FR    IT 

 










Légende :    VFR   VFR Marginal   IFR   IFR Intensif   IFR Très Intensif
Visi : 
Plafond : 
>= 8 km
>= 3000ft
5 à 8 km
1000 à 3000 ft
1500m à 5 km
500 à 1000 ft
800 à 1500m
200 à 500 ft
< 800m
< 200 ft
Symboles :   Orages  Brouillard  Fortes neiges  Fortes précipitations  Vent > 20 kt
SIGMETs :   Divers  Orages  Givrage  Turbulence  Onde Orograph.  Cendres Volcan.







- Altitude de l'aérodrome : 26 ft


ETNT - Wittmundhaven AB

DERNIER METAR :
  • 220320Z AUTO 13008KT 8000 // ////// 02/00 Q1007 ///

METARs EXPIRÉS :
  • 220220Z AUTO 14008KT 8000 // ////// 02/00 Q1008 ///
  • 220120Z AUTO 14007KT 6000 // ////// 02/01 Q1009 ///

TAF TAF ETNT
Valide du 22 à 03h jusqu'au 22 à 12h UTC


220200Z 2203/2212 17010KT 5000 BR SCT005 BKN030
TEMPO 2203/2212 15010KT 3000 -RASN BKN005 OVC010
PROB30 2203/2210 19002KT 0800 SN OVC002 BY ETGL
Pas de NOTAMs connus pour ce terrain.
1 SIGMET publié pour la FIR Bremen (EDWW) :
 
Givrage fort
EDWW SIGMET 1 VALID 220100/220500 EDZH
EDWW BREMEN FIR SEV ICE FCST W OF E00800 3000FT/FL120 MOV E NC=



MET'MAP, la Météo Aéronautique d'un coup d'oeil ! - Copyright ORBIFLY Décembre 2007 - Disclaimer

ORBIFLY MET'MAP TEAM :

Programmation & Développement : Alexandra Zaïnal
Conception & Développement : Baudouin d'Aumeries
Co-Programmation & Développement : Marc-Olivier Méhu
Soutien technique & logistique : Manuel Goepfert

Contact : metmap@orbifly.com




SOURCES & CREDITS :

   NOAA